Time;durP1;ratioP1;P1;durP2;ratioP2;P2;SDS_P1;SDS_P2;PMS_P1;PMS_P2;Temp;Humidity;BMP_temperature;BMP_pressure;BME280_temperature;BME280_humidity;BME280_pressure;Samples;Min_cycle;Max_cycle;Signal;HPM_P1;HPM_P2
2023/07/17 00:01:57;;;;;;;16.52;11.70;;;;;;;25.39;80.72;95121.56;4983367;28;20661;-80
2023/07/17 00:04:22;;;;;;;14.38;11.30;;;;;;;25.29;80.52;95102.88;4983475;28;20196;-80
2023/07/17 00:06:47;;;;;;;17.48;10.70;;;;;;;25.33;81.25;95106.59;4983426;28;20185;-80
2023/07/17 00:09:13;;;;;;;16.35;11.70;;;;;;;25.42;80.19;95121.78;4981597;28;20232;-80
2023/07/17 00:11:39;;;;;;;15.55;10.75;;;;;;;25.40;80.47;95121.28;4984944;28;20280;-80
2023/07/17 00:14:04;;;;;;;15.25;10.60;;;;;;;25.39;80.73;95124.28;4985097;28;20174;-80
2023/07/17 00:16:30;;;;;;;22.05;11.98;;;;;;;25.31;80.42;95117.69;4984679;28;20182;-80
2023/07/17 00:18:55;;;;;;;16.58;10.55;;;;;;;25.35;79.26;95134.03;4978134;28;20232;-80
2023/07/17 00:21:20;;;;;;;14.60;11.32;;;;;;;25.33;80.42;95134.34;4987171;28;20635;-80
2023/07/17 00:23:47;;;;;;;13.50;10.55;;;;;;;25.28;80.24;95133.63;4986693;28;20721;-80
2023/07/17 00:26:12;;;;;;;16.00;10.80;;;;;;;25.18;79.36;95119.22;4986591;28;20635;-80
2023/07/17 00:28:38;;;;;;;13.20;10.77;;;;;;;25.22;78.31;95127.53;4986829;28;20184;-80
2023/07/17 00:31:03;;;;;;;21.02;15.95;;;;;;;25.13;78.56;95111.25;4986478;28;20208;-80
2023/07/17 00:33:29;;;;;;;22.73;16.88;;;;;;;25.25;79.18;95121.56;4986728;28;20581;-80
2023/07/17 00:35:54;;;;;;;18.98;14.90;;;;;;;25.21;78.88;95115.16;4986469;28;20192;-80
2023/07/17 00:38:20;;;;;;;22.88;14.82;;;;;;;24.96;78.52;95072.47;4984273;28;20275;-80
2023/07/17 00:40:46;;;;;;;20.60;14.00;;;;;;;25.17;78.92;95114.94;4984260;28;20181;-80
2023/07/17 00:43:12;;;;;;;26.25;17.17;;;;;;;25.10;79.26;95106.44;4965183;28;20173;-80
2023/07/17 00:45:41;;;;;;;16.00;12.50;;;;;;;25.19;78.55;95130.81;4982241;28;20236;-80
2023/07/17 00:48:07;;;;;;;30.00;22.23;;;;;;;25.12;79.21;95135.78;4978497;28;20561;-80
2023/07/17 00:50:34;;;;;;;24.40;12.85;;;;;;;25.07;79.56;95136.69;4985490;28;20293;-80
2023/07/17 00:53:00;;;;;;;18.08;12.10;;;;;;;24.97;79.21;95131.47;4985627;28;20185;-80
2023/07/17 00:55:26;;;;;;;13.23;9.88;;;;;;;25.07;77.15;95146.66;4987157;28;20223;-80
2023/07/17 00:57:51;;;;;;;12.23;8.65;;;;;;;25.09;74.59;95145.25;5004352;28;20505;-80
2023/07/17 01:00:19;;;;;;;11.13;9.07;;;;;;;24.99;74.65;95128.47;5004695;28;20489;-80
2023/07/17 01:02:45;;;;;;;12.38;8.90;;;;;;;25.02;73.68;95144.84;5004759;28;20495;-79
2023/07/17 01:05:11;;;;;;;12.20;8.57;;;;;;;24.91;73.15;95129.91;5005401;28;20105;-79
2023/07/17 01:07:39;;;;;;;11.83;9.03;;;;;;;25.03;73.43;95146.44;5004611;28;20446;-79
2023/07/17 01:10:08;;;;;;;11.93;9.02;;;;;;;25.06;73.80;95140.47;5005515;28;20215;-79
2023/07/17 01:12:37;;;;;;;10.48;7.45;;;;;;;25.17;72.38;95146.47;5004055;28;20169;-79
2023/07/17 01:15:04;;;;;;;10.98;9.15;;;;;;;25.21;72.94;95138.59;5005289;28;20176;-79
2023/07/17 01:17:29;;;;;;;12.77;8.73;;;;;;;25.26;71.72;95139.31;5003455;28;20243;-80
2023/07/17 01:19:55;;;;;;;14.23;7.80;;;;;;;25.34;70.54;95148.63;5007759;28;20518;-79
2023/07/17 01:22:23;;;;;;;11.70;7.40;;;;;;;25.30;69.60;95134.13;5003516;28;20704;-79
2023/07/17 01:24:48;;;;;;;9.02;6.32;;;;;;;25.31;68.40;95127.66;4998590;28;20568;-79
2023/07/17 01:27:14;;;;;;;10.82;6.13;;;;;;;25.40;68.41;95142.06;5008047;28;20172;-79
2023/07/17 01:29:40;;;;;;;8.90;7.32;;;;;;;25.42;68.79;95153.34;5005149;28;20635;-79
2023/07/17 01:32:05;;;;;;;10.77;6.55;;;;;;;25.41;67.93;95154.44;5004762;28;20180;-79
2023/07/17 01:34:31;;;;;;;17.05;10.13;;;;;;;25.27;68.32;95137.41;5004721;28;20212;-79
2023/07/17 01:36:56;;;;;;;14.77;10.63;;;;;;;25.38;69.60;95150.44;4998073;28;20181;-80
2023/07/17 01:39:24;;;;;;;13.43;6.70;;;;;;;25.14;65.91;95123.63;5002275;28;20431;-79
2023/07/17 01:41:50;;;;;;;9.10;6.18;;;;;;;25.18;65.83;95134.59;5003779;28;20412;-79
2023/07/17 01:44:15;;;;;;;8.60;6.30;;;;;;;25.19;65.19;95146.97;5003800;28;20417;-80
2023/07/17 01:46:40;;;;;;;8.17;6.13;;;;;;;25.27;64.71;95142.81;4997373;28;20431;-79
2023/07/17 01:49:07;;;;;;;18.20;10.32;;;;;;;25.21;64.48;95139.41;4985621;28;20177;-80
2023/07/17 01:51:32;;;;;;;7.78;5.65;;;;;;;25.22;63.98;95141.00;5004372;28;20433;-80
2023/07/17 01:53:57;;;;;;;12.37;7.47;;;;;;;25.09;64.13;95130.97;5003333;28;20791;-79
2023/07/17 01:56:23;;;;;;;10.90;7.35;;;;;;;25.21;64.88;95157.47;4981525;28;20293;-79
2023/07/17 01:58:48;;;;;;;10.23;5.68;;;;;;;25.17;64.61;95160.75;4983512;28;20177;-80
2023/07/17 02:01:15;;;;;;;13.05;5.88;;;;;;;25.12;64.05;95151.97;4984191;28;20404;-80
2023/07/17 02:03:40;;;;;;;10.35;5.53;;;;;;;25.15;64.22;95162.97;4984535;28;20422;-79
2023/07/17 02:06:06;;;;;;;21.05;14.40;;;;;;;25.09;65.58;95157.94;4975988;28;20173;-79
2023/07/17 02:08:32;;;;;;;10.70;7.05;;;;;;;25.07;64.38;95160.94;4974962;28;20177;-79
2023/07/17 02:10:57;;;;;;;10.88;7.25;;;;;;;25.16;64.29;95169.97;4974170;28;20185;-79
2023/07/17 02:13:22;;;;;;;24.00;16.58;;;;;;;25.02;64.29;95158.31;4982374;28;20670;-79
2023/07/17 02:15:48;;;;;;;16.52;11.90;;;;;;;25.05;65.54;95151.53;4982449;28;20224;-79
2023/07/17 02:18:13;;;;;;;11.90;6.90;;;;;;;25.06;65.88;95150.44;4983559;28;20569;-79
2023/07/17 02:20:39;;;;;;;11.90;6.55;;;;;;;24.91;65.26;95134.50;4984422;28;20182;-79
2023/07/17 02:23:04;;;;;;;9.18;5.38;;;;;;;25.12;64.39;95178.91;4984517;28;20177;-79
2023/07/17 02:25:30;;;;;;;10.30;7.25;;;;;;;24.97;65.81;95154.91;4984963;28;20271;-79
2023/07/17 02:27:55;;;;;;;9.98;6.80;;;;;;;24.90;64.48;95149.88;4983052;28;20704;-79
2023/07/17 02:30:20;;;;;;;8.63;6.60;;;;;;;25.06;66.26;95178.19;4985859;28;20193;-79
2023/07/17 02:32:46;;;;;;;11.50;7.78;;;;;;;24.78;66.85;95136.84;4984117;28;20176;-79
2023/07/17 02:35:11;;;;;;;13.05;8.02;;;;;;;24.93;67.95;95170.84;4984508;28;20173;-79
2023/07/17 02:37:37;;;;;;;23.23;8.00;;;;;;;24.81;68.37;95148.94;4983084;28;20260;-79
2023/07/17 02:40:12;;;;;;;9.40;6.95;;;;;;;24.82;69.26;95167.47;4982115;28;20181;-79
2023/07/17 02:42:38;;;;;;;11.32;7.32;;;;;;;24.68;69.92;95155.03;4981972;28;20655;-79
2023/07/17 02:45:07;;;;;;;13.68;7.60;;;;;;;24.77;70.51;95172.13;4982058;28;20221;-79
2023/07/17 02:47:33;;;;;;;14.02;8.73;;;;;;;24.57;70.67;95158.97;4982156;28;20550;-80
2023/07/17 02:49:58;;;;;;;14.27;8.30;;;;;;;24.41;71.42;95150.31;4981814;28;20204;-79
2023/07/17 02:52:23;;;;;;;14.05;8.93;;;;;;;24.51;71.93;95176.28;4981831;28;20170;-78
2023/07/17 02:54:49;;;;;;;18.67;8.70;;;;;;;24.23;72.66;95153.78;4986005;28;20328;-79
2023/07/17 02:57:15;;;;;;;11.40;8.52;;;;;;;24.10;73.50;95146.38;5003618;28;20173;-79
2023/07/17 02:59:40;;;;;;;11.85;8.93;;;;;;;24.11;73.82;95164.13;5003302;28;20218;-79
2023/07/17 03:02:06;;;;;;;15.48;8.60;;;;;;;24.17;74.62;95179.13;5003530;28;20613;-79
2023/07/17 03:04:31;;;;;;;18.92;9.90;;;;;;;24.12;75.20;95177.31;5003691;28;20611;-79
2023/07/17 03:06:57;;;;;;;13.90;9.52;;;;;;;24.16;75.16;95174.81;5002255;28;20172;-78
2023/07/17 03:09:22;;;;;;;16.30;9.55;;;;;;;23.86;76.26;95136.47;5003078;28;20184;-78
2023/07/17 03:11:48;;;;;;;15.88;10.20;;;;;;;24.10;76.54;95176.00;4998017;28;20341;-78
2023/07/17 03:14:14;;;;;;;13.60;9.68;;;;;;;23.95;76.68;95163.53;5003550;28;20192;-78
2023/07/17 03:16:40;;;;;;;17.90;9.02;;;;;;;23.87;77.06;95148.78;5000946;28;20223;-78
2023/07/17 03:19:06;;;;;;;17.08;10.63;;;;;;;24.06;77.08;95184.63;5007126;28;20184;-78
2023/07/17 03:21:32;;;;;;;19.60;10.27;;;;;;;24.03;77.32;95189.78;4997188;28;20180;-78
2023/07/17 03:23:57;;;;;;;18.67;11.10;;;;;;;23.87;77.99;95172.22;5005517;28;20201;-78
2023/07/17 03:26:22;;;;;;;17.98;11.88;;;;;;;23.91;78.31;95182.13;4997996;28;20261;-77
2023/07/17 03:28:48;;;;;;;26.00;16.30;;;;;;;23.98;78.43;95195.22;5007601;28;20878;-78
2023/07/17 03:31:13;;;;;;;17.95;10.95;;;;;;;23.79;78.29;95165.56;5003469;28;20288;-79
2023/07/17 03:33:38;;;;;;;20.10;11.77;;;;;;;23.89;78.55;95175.41;5007744;28;20180;-84
2023/07/17 03:36:04;;;;;;;24.10;14.80;;;;;;;23.85;78.73;95166.31;4997800;28;20166;-84
2023/07/17 03:38:30;;;;;;;23.15;16.35;;;;;;;24.06;79.05;95192.69;4995768;28;20181;-81
2023/07/17 03:40:56;;;;;;;22.08;14.27;;;;;;;24.14;78.61;95202.00;4995930;28;20165;-81
2023/07/17 03:43:22;;;;;;;28.00;19.00;;;;;;;24.15;78.47;95192.84;5000800;28;20212;-81
2023/07/17 03:45:51;;;;;;;26.13;17.50;;;;;;;24.26;78.97;95201.66;5003146;28;20201;-81
2023/07/17 03:48:16;;;;;;;13.52;10.80;;;;;;;24.24;78.43;95191.16;5003319;28;20236;-84
2023/07/17 03:50:42;;;;;;;17.50;14.05;;;;;;;24.34;78.64;95191.03;5007029;28;20239;-84
2023/07/17 03:53:07;;;;;;;16.90;12.57;;;;;;;24.47;78.05;95207.59;5007911;28;20187;-84
2023/07/17 03:55:33;;;;;;;14.10;10.15;;;;;;;24.40;78.32;95194.47;5003432;28;20369;-83
2023/07/17 03:57:59;;;;;;;14.80;10.40;;;;;;;24.52;77.59;95207.50;4980394;28;20673;-84
2023/07/17 04:00:24;;;;;;;20.20;12.43;;;;;;;24.56;78.02;95197.78;4986865;28;20257;-84
2023/07/17 04:02:50;;;;;;;19.83;10.68;;;;;;;24.78;77.64;95216.84;4984899;28;20176;-84
2023/07/17 04:05:15;;;;;;;14.77;10.13;;;;;;;24.74;76.88;95194.25;4991382;28;20625;-83
2023/07/17 04:07:41;;;;;;;17.58;11.40;;;;;;;24.93;76.72;95216.66;4986521;28;20671;-84
2023/07/17 04:10:06;;;;;;;17.48;10.23;;;;;;;24.92;76.86;95198.88;4985619;28;20586;-84
2023/07/17 04:12:32;;;;;;;21.73;10.85;;;;;;;25.19;76.07;95223.25;4978684;28;20185;-84
2023/07/17 04:14:58;;;;;;;13.50;10.40;;;;;;;25.23;75.60;95209.19;4989112;28;20165;-84
2023/07/17 04:17:23;;;;;;;22.38;15.48;;;;;;;25.45;74.46;95212.84;4980056;28;20180;-85
2023/07/17 04:19:49;;;;;;;15.10;11.13;;;;;;;25.44;73.67;95195.06;4983813;28;20177;-86
2023/07/17 04:22:14;;;;;;;20.40;13.45;;;;;;;25.68;73.38;95221.16;4984524;28;20185;-86
2023/07/17 04:24:39;;;;;;;26.77;16.23;;;;;;;25.88;72.92;95226.97;4989329;28;20173;-86
2023/07/17 04:27:05;;;;;;;18.35;12.48;;;;;;;25.92;72.39;95208.28;4983071;28;20557;-86
2023/07/17 04:29:30;;;;;;;24.83;11.70;;;;;;;25.98;70.80;95200.88;4967150;28;20209;-89
2023/07/17 04:31:56;;;;;;;14.75;10.25;;;;;;;26.26;70.10;95224.13;4969801;28;20252;-86
2023/07/17 04:34:21;;;;;;;19.75;12.70;;;;;;;26.46;69.84;95239.13;4986415;28;20177;-86
2023/07/17 04:36:47;;;;;;;17.88;10.50;;;;;;;26.58;70.19;95245.59;4988036;28;20176;-86
2023/07/17 04:39:12;;;;;;;14.63;9.10;;;;;;;26.63;68.81;95223.91;4975257;28;20678;-86
2023/07/17 04:41:38;;;;;;;19.40;9.07;;;;;;;26.88;67.06;95249.56;4984149;28;20162;-87
2023/07/17 04:44:04;;;;;;;12.98;8.65;;;;;;;26.97;66.39;95231.56;4966578;28;20538;-86
2023/07/17 04:46:29;;;;;;;17.50;8.18;;;;;;;27.25;65.66;95250.38;4983985;28;20863;-86
2023/07/17 04:48:54;;;;;;;21.50;9.18;;;;;;;27.40;65.18;95253.53;4984744;28;20378;-86
2023/07/17 04:51:20;;;;;;;18.42;8.48;;;;;;;27.53;64.85;95253.78;4985862;28;20209;-86
2023/07/17 04:53:46;;;;;;;18.60;8.68;;;;;;;27.48;63.40;95224.16;4968546;28;20601;-86
2023/07/17 04:56:11;;;;;;;11.77;8.23;;;;;;;27.65;62.02;95254.84;4980088;28;20224;-86
2023/07/17 04:58:37;;;;;;;12.82;7.53;;;;;;;27.76;60.61;95255.41;4978278;28;20209;-86
2023/07/17 05:01:04;;;;;;;16.05;9.93;;;;;;;27.63;61.16;95208.34;4995859;28;20235;-86
2023/07/17 05:03:30;;;;;;;14.38;8.40;;;;;;;27.68;61.44;95215.53;4995433;28;20558;-85
2023/07/17 05:05:56;;;;;;;14.65;12.38;;;;;;;27.78;61.09;95229.59;5005266;28;20183;-86
2023/07/17 05:08:22;;;;;;;14.13;9.90;;;;;;;28.01;61.28;95251.25;4985986;28;20736;-86
2023/07/17 05:10:55;;;;;;;13.75;9.02;;;;;;;28.21;61.19;95258.03;5002933;28;20678;-87
2023/07/17 05:13:20;;;;;;;20.63;12.00;;;;;;;28.10;59.84;95236.63;5000163;28;20173;-87
2023/07/17 05:15:46;;;;;;;16.65;8.77;;;;;;;28.11;59.59;95240.09;4995247;28;20199;-87
2023/07/17 05:18:11;;;;;;;17.77;8.52;;;;;;;28.33;59.37;95256.34;5002336;28;20173;-86
2023/07/17 05:20:36;;;;;;;20.23;7.93;;;;;;;28.42;58.95;95250.97;4991650;28;20554;-86
2023/07/17 05:23:02;;;;;;;16.15;8.20;;;;;;;28.56;59.63;95261.66;4986335;28;20246;-87
2023/07/17 05:25:27;;;;;;;11.15;6.97;;;;;;;28.60;57.82;95243.69;4980715;28;20617;-87
2023/07/17 05:27:52;;;;;;;27.02;14.60;;;;;;;28.60;57.14;95230.94;4985137;28;20176;-87
2023/07/17 05:30:18;;;;;;;16.88;8.02;;;;;;;28.70;56.34;95237.97;4982515;28;20204;-87
2023/07/17 05:32:43;;;;;;;11.38;7.47;;;;;;;28.62;56.75;95223.28;4980564;28;20173;-86
2023/07/17 05:35:09;;;;;;;12.27;8.85;;;;;;;28.82;57.05;95228.13;5003221;28;20957;-86
2023/07/17 05:37:34;;;;;;;14.70;7.40;;;;;;;28.95;57.41;95242.66;5001827;28;20200;-86
2023/07/17 05:40:00;;;;;;;15.88;7.68;;;;;;;29.14;57.71;95250.50;4987847;28;20232;-86
2023/07/17 05:42:25;;;;;;;14.98;8.40;;;;;;;29.39;55.35;95268.72;4999325;28;20208;-86
2023/07/17 05:44:50;;;;;;;13.88;8.02;;;;;;;29.49;54.92;95276.53;5001968;28;20239;-86
2023/07/17 05:47:16;;;;;;;16.77;7.00;;;;;;;29.36;55.42;95247.66;5004136;28;20633;-86
2023/07/17 05:49:41;;;;;;;16.30;6.88;;;;;;;29.61;53.54;95278.59;4995658;28;20188;-84
2023/07/17 05:52:07;;;;;;;19.10;12.02;;;;;;;29.47;55.91;95243.50;4999145;28;20209;-86
2023/07/17 05:54:33;;;;;;;14.23;9.15;;;;;;;29.72;54.04;95271.72;4983379;28;20247;-86
2023/07/17 05:56:58;;;;;;;12.68;7.32;;;;;;;29.84;51.93;95285.44;4983317;28;20220;-86
2023/07/17 05:59:24;;;;;;;13.65;6.80;;;;;;;29.95;54.30;95289.44;4982709;28;20169;-86
2023/07/17 06:01:49;;;;;;;11.60;7.22;;;;;;;29.84;52.56;95254.78;4981023;28;20596;-84
2023/07/17 06:04:14;;;;;;;12.57;6.13;;;;;;;30.10;53.55;95277.25;4986718;28;20192;-83
2023/07/17 06:06:40;;;;;;;9.85;8.15;;;;;;;30.11;53.78;95289.72;4968323;28;20288;-86
2023/07/17 06:09:06;;;;;;;13.63;8.57;;;;;;;30.18;52.90;95281.88;4984204;28;20165;-88
2023/07/17 06:11:31;;;;;;;16.17;9.20;;;;;;;30.15;52.83;95258.06;4984690;28;20582;-88
2023/07/17 06:13:56;;;;;;;10.88;7.13;;;;;;;30.34;52.61;95266.66;4983369;28;20177;-89
2023/07/17 06:16:22;;;;;;;17.80;7.65;;;;;;;30.52;52.55;95266.59;4982553;28;20170;-88
2023/07/17 06:18:47;;;;;;;11.55;6.57;;;;;;;30.65;51.54;95265.56;4977790;28;20196;-88
2023/07/17 06:21:13;;;;;;;17.23;6.80;;;;;;;30.64;48.88;95261.25;4971707;28;20174;-90
2023/07/17 06:23:38;;;;;;;7.07;5.75;;;;;;;30.71;50.52;95256.06;4964940;28;20275;-88
2023/07/17 06:26:04;;;;;;;7.43;5.55;;;;;;;30.69;47.20;95261.88;4982438;28;20180;-90
2023/07/17 06:28:30;;;;;;;9.93;5.82;;;;;;;30.73;48.11;95281.81;4964950;28;20201;-86
2023/07/17 06:30:56;;;;;;;8.95;6.47;;;;;;;30.64;48.79;95275.63;4975962;28;20197;-88
2023/07/17 06:33:24;;;;;;;15.93;6.03;;;;;;;30.74;47.79;95275.25;4979072;28;20203;-84
2023/07/17 06:35:50;;;;;;;15.80;6.07;;;;;;;30.82;48.16;95276.34;4982381;28;20174;-83
2023/07/17 06:38:15;;;;;;;10.98;6.63;;;;;;;30.38;48.48;95250.47;4964953;28;20184;-79
2023/07/17 06:40:41;;;;;;;18.75;7.18;;;;;;;30.31;48.86;95275.44;4990315;28;20166;-83
2023/07/17 06:43:06;;;;;;;9.18;6.18;;;;;;;30.16;49.54;95254.25;4984407;28;20169;-81
2023/07/17 06:45:33;;;;;;;9.75;6.63;;;;;;;30.48;50.85;95271.84;4984643;28;20230;-81
2023/07/17 06:47:59;;;;;;;11.75;6.53;;;;;;;30.72;51.05;95269.34;4978289;28;20181;-86
2023/07/17 06:50:24;;;;;;;16.48;7.03;;;;;;;30.78;48.76;95248.22;4974587;28;20634;-88
2023/07/17 06:52:49;;;;;;;11.68;6.78;;;;;;;30.81;50.66;95223.06;4970826;28;20217;-90
2023/07/17 06:55:16;;;;;;;12.70;7.28;;;;;;;30.95;47.75;95259.00;4984102;28;21002;-91
2023/07/17 06:57:41;;;;;;;12.43;7.50;;;;;;;30.52;49.20;95263.88;4990135;28;20256;-88
2023/07/17 07:00:07;;;;;;;16.05;7.72;;;;;;;29.92;50.69;95243.09;4990590;28;20236;-87
2023/07/17 07:02:33;;;;;;;16.13;7.68;;;;;;;29.82;51.38;95238.81;4999315;28;20178;-84
2023/07/17 07:04:59;;;;;;;18.70;7.10;;;;;;;29.83;51.86;95237.69;5001342;28;20173;-82
2023/07/17 07:07:24;;;;;;;13.55;7.57;;;;;;;30.20;53.53;95247.00;4999679;28;20285;-81
2023/07/17 07:09:49;;;;;;;19.73;9.10;;;;;;;30.47;52.32;95232.19;4991900;28;20185;-81
2023/07/17 07:12:15;;;;;;;13.50;7.25;;;;;;;31.03;51.73;95266.31;4992632;28;20179;-77
2023/07/17 07:14:41;;;;;;;9.80;6.38;;;;;;;31.35;51.99;95267.53;4980993;28;20252;-76
2023/07/17 07:17:07;;;;;;;9.75;6.97;;;;;;;31.77;49.20;95270.22;4994909;28;20200;-77
2023/07/17 07:19:33;;;;;;;17.02;7.15;;;;;;;32.15;48.73;95270.81;5002561;28;20207;-77
2023/07/17 07:21:59;;;;;;;14.30;6.35;;;;;;;32.27;49.33;95242.78;5005253;28;20168;-78
2023/07/17 07:24:25;;;;;;;10.50;6.05;;;;;;;32.59;49.81;95241.13;5005644;28;20179;-78
2023/07/17 07:26:50;;;;;;;17.80;7.03;;;;;;;32.78;49.26;95233.16;5003416;28;20176;-78
2023/07/17 07:29:15;;;;;;;17.33;8.02;;;;;;;33.07;48.17;95232.09;5006488;28;20665;-79
2023/07/17 07:31:41;;;;;;;12.98;7.50;;;;;;;33.17;45.48;95239.81;4998679;28;20291;-78
2023/07/17 07:34:06;;;;;;;12.70;8.15;;;;;;;33.16;45.62;95240.94;5015780;28;20185;-78
2023/07/17 07:36:31;;;;;;;13.20;6.95;;;;;;;33.17;45.96;95236.28;5007052;28;20252;-78
2023/07/17 07:38:57;;;;;;;13.18;7.07;;;;;;;33.34;45.38;95247.75;4997554;28;20725;-77
2023/07/17 07:41:22;;;;;;;12.15;7.43;;;;;;;33.42;49.72;95240.56;4991659;28;20236;-78
2023/07/17 07:43:48;;;;;;;13.75;7.65;;;;;;;33.43;46.40;95233.16;5000474;28;20182;-77
2023/07/17 07:46:13;;;;;;;15.38;7.60;;;;;;;33.38;47.96;95241.63;4999052;28;20180;-77
2023/07/17 07:48:39;;;;;;;19.42;9.13;;;;;;;33.38;48.56;95241.63;4987028;28;20181;-79
2023/07/17 07:51:04;;;;;;;17.58;8.63;;;;;;;33.37;46.85;95243.56;4995280;28;20201;-77
2023/07/17 07:53:30;;;;;;;13.95;8.38;;;;;;;33.65;49.54;95238.06;4994834;28;20260;-77
2023/07/17 07:55:56;;;;;;;14.13;8.07;;;;;;;33.94;48.43;95243.22;4994986;28;20232;-77
2023/07/17 07:58:21;;;;;;;15.30;8.77;;;;;;;34.36;44.76;95253.69;4995116;28;20168;-77
2023/07/17 08:00:46;;;;;;;11.55;8.20;;;;;;;34.65;46.54;95245.03;4995962;28;20709;-76
2023/07/17 08:03:12;;;;;;;12.80;9.75;;;;;;;34.83;44.40;95236.47;4997071;28;20177;-76
2023/07/17 08:05:37;;;;;;;16.92;8.80;;;;;;;35.01;47.38;95246.69;5001895;28;20187;-76
2023/07/17 08:08:03;;;;;;;18.50;10.02;;;;;;;35.36;45.08;95237.69;4996618;28;20263;-76
2023/07/17 08:10:28;;;;;;;17.30;9.38;;;;;;;35.42;44.94;95230.75;5002674;28;20204;-77
2023/07/17 08:12:54;;;;;;;13.18;8.77;;;;;;;35.46;43.32;95242.59;5003776;28;20173;-79
2023/07/17 08:15:19;;;;;;;15.05;9.93;;;;;;;34.61;43.72;95232.41;4996103;28;20627;-80
2023/07/17 08:17:45;;;;;;;16.40;9.50;;;;;;;34.38;44.51;95226.78;4995184;28;20169;-79
2023/07/17 08:20:10;;;;;;;14.27;8.05;;;;;;;34.42;45.86;95228.44;4994856;28;20165;-78
2023/07/17 08:22:36;;;;;;;13.55;7.95;;;;;;;34.68;44.97;95221.66;5003570;28;20653;-77
2023/07/17 08:25:02;;;;;;;12.13;8.15;;;;;;;34.72;43.78;95223.31;5004196;28;20173;-79
2023/07/17 08:27:28;;;;;;;14.07;8.60;;;;;;;34.96;46.02;95229.72;5003957;28;20212;-79
2023/07/17 08:29:53;;;;;;;15.35;9.07;;;;;;;34.88;46.57;95215.09;5003406;28;20181;-78
2023/07/17 08:32:18;;;;;;;19.63;8.75;;;;;;;34.80;45.13;95219.63;5003578;28;20231;-78
2023/07/17 08:34:44;;;;;;;15.95;9.35;;;;;;;34.95;43.35;95228.13;5011517;28;20191;-77
2023/07/17 08:37:09;;;;;;;12.50;8.73;;;;;;;35.05;45.33;95222.91;4995631;28;20235;-77
2023/07/17 08:39:35;;;;;;;10.77;8.98;;;;;;;34.97;43.43;95221.16;4997404;28;20237;-78
2023/07/17 08:42:01;;;;;;;13.65;7.78;;;;;;;34.83;45.02;95222.78;5008476;28;20246;-78
2023/07/17 08:44:28;;;;;;;15.43;8.10;;;;;;;34.66;45.24;95204.78;5002082;28;20184;-78
2023/07/17 08:46:53;;;;;;;10.95;8.23;;;;;;;34.70;43.94;95206.44;4996740;28;20311;-79
2023/07/17 08:49:19;;;;;;;14.77;8.27;;;;;;;34.59;47.65;95219.09;5005309;28;20256;-79
2023/07/17 08:51:49;;;;;;;15.27;9.35;;;;;;;34.60;47.84;95207.00;5008310;28;20701;-81
2023/07/17 08:54:16;;;;;;;15.00;8.70;;;;;;;34.53;47.40;95206.03;5004580;28;20177;-83
2023/07/17 08:56:45;;;;;;;16.67;9.32;;;;;;;34.41;48.10;95199.53;4988427;28;20631;-82
2023/07/17 08:59:13;;;;;;;21.50;8.27;;;;;;;34.39;51.80;95209.22;5005426;28;20179;-84
2023/07/17 09:01:39;;;;;;;15.98;9.80;;;;;;;34.14;48.55;95188.66;4999885;28;20172;-84
2023/07/17 09:04:06;;;;;;;16.15;8.88;;;;;;;34.18;48.56;95195.00;5005936;28;20189;-82
2023/07/17 09:06:31;;;;;;;13.73;8.23;;;;;;;33.97;47.42;95165.19;4988056;28;20235;-83
2023/07/17 09:08:56;;;;;;;14.07;8.65;;;;;;;34.06;49.59;95184.94;4994617;28;20176;-84
2023/07/17 09:11:22;;;;;;;13.00;8.05;;;;;;;34.04;49.96;95182.56;4994533;28;20651;-83
2023/07/17 09:13:49;;;;;;;12.23;7.65;;;;;;;34.00;48.41;95189.88;5011991;28;20169;-84
2023/07/17 09:16:17;;;;;;;14.63;8.65;;;;;;;33.86;48.92;95180.53;5010813;28;20242;-83
2023/07/17 09:18:42;;;;;;;13.82;8.75;;;;;;;33.92;51.67;95196.31;5010116;28;20235;-83
2023/07/17 09:21:11;;;;;;;13.68;7.72;;;;;;;33.98;49.37;95192.19;5010188;28;20573;-83
2023/07/17 09:23:39;;;;;;;11.30;8.00;;;;;;;33.96;48.20;95191.72;4992591;28;20180;-83
2023/07/17 09:26:04;;;;;;;11.40;7.75;;;;;;;33.79;45.78;95177.59;4990536;28;20200;-83
2023/07/17 09:28:30;;;;;;;11.82;7.38;;;;;;;33.73;49.07;95185.28;4990623;28;20208;-83
2023/07/17 09:31:02;;;;;;;9.45;6.93;;;;;;;33.87;46.97;95184.84;4990916;28;20560;-83
2023/07/17 09:33:27;;;;;;;14.07;7.85;;;;;;;33.80;48.16;95177.25;4992270;28;20247;-83
2023/07/17 09:35:56;;;;;;;13.95;6.95;;;;;;;33.91;48.01;95181.03;4992048;28;20256;-83
2023/07/17 09:38:24;;;;;;;12.02;7.60;;;;;;;33.73;49.08;95163.41;4992163;28;20228;-83
2023/07/17 09:40:50;;;;;;;17.85;7.60;;;;;;;33.81;45.79;95173.38;4992233;28;20169;-83
2023/07/17 09:43:28;;;;;;;11.05;7.53;;;;;;;33.76;47.87;95170.91;5003388;28;20175;-83
2023/07/17 09:45:59;;;;;;;10.13;6.50;;;;;;;33.61;47.24;95174.38;5011621;28;20184;-84
2023/07/17 09:48:27;;;;;;;10.68;7.15;;;;;;;33.52;50.27;95171.00;5005576;28;20177;-83
2023/07/17 09:50:52;;;;;;;11.85;6.93;;;;;;;33.49;44.82;95153.38;4987434;28;20698;-83
2023/07/17 09:53:19;;;;;;;9.32;6.40;;;;;;;33.60;48.98;95167.31;4993754;28;20179;-83
2023/07/17 09:55:47;;;;;;;11.18;6.30;;;;;;;33.55;43.58;95167.59;4996526;28;20319;-82
2023/07/17 09:58:15;;;;;;;6.20;5.03;;;;;;;33.65;41.03;95181.50;4984154;28;20283;-83
2023/07/17 10:00:42;;;;;;;10.20;6.50;;;;;;;33.57;41.81;95168.00;5010196;28;20185;-82
2023/07/17 10:03:18;;;;;;;9.00;6.05;;;;;;;33.48;44.98;95167.38;5011056;28;20255;-83
2023/07/17 10:05:44;;;;;;;7.47;5.43;;;;;;;33.51;41.28;95170.22;5011380;28;20208;-83
2023/07/17 10:08:10;;;;;;;8.98;5.97;;;;;;;33.47;43.26;95174.00;4993490;28;20180;-84
2023/07/17 10:10:37;;;;;;;13.07;6.68;;;;;;;33.37;42.10;95156.19;5011338;28;20866;-83
2023/07/17 10:13:03;;;;;;;7.07;5.85;;;;;;;33.37;44.89;95164.38;5005047;28;20185;-84
2023/07/17 10:15:29;;;;;;;9.20;6.28;;;;;;;33.36;44.71;95157.31;4993387;28;20562;-83
2023/07/17 10:17:59;;;;;;;60.90;9.95;;;;;;;33.37;45.61;95150.72;5011481;28;20169;-83
2023/07/17 10:20:27;;;;;;;10.88;5.57;;;;;;;33.37;44.55;95152.66;5011087;28;20169;-83
2023/07/17 10:22:53;;;;;;;10.95;6.13;;;;;;;33.03;41.88;95102.94;5010921;28;20267;-83
2023/07/17 10:25:18;;;;;;;8.48;5.80;;;;;;;33.19;45.58;95146.66;5009883;28;20703;-83
2023/07/17 10:27:50;;;;;;;11.18;6.13;;;;;;;33.20;45.85;95154.50;5010958;28;20180;-83
2023/07/17 10:30:28;;;;;;;7.53;5.55;;;;;;;33.27;43.94;95143.03;5010741;28;20246;-83
2023/07/17 10:33:10;;;;;;;10.10;6.03;;;;;;;33.34;43.37;95149.47;5010795;28;20180;-83
2023/07/17 10:36:02;;;;;;;8.65;5.40;;;;;;;33.40;41.72;95151.94;4993011;28;20760;-83
2023/07/17 10:38:35;;;;;;;7.03;5.07;;;;;;;33.38;40.24;95141.38;5010123;28;20587;-83
2023/07/17 10:41:24;;;;;;;9.73;5.25;;;;;;;33.20;42.67;95134.59;5010713;28;20172;-84
2023/07/17 10:43:57;;;;;;;6.65;5.38;;;;;;;33.25;42.61;95140.63;5010810;28;20179;-83
2023/07/17 10:46:30;;;;;;;7.15;5.55;;;;;;;33.21;42.28;95131.53;5010533;28;20192;-84
2023/07/17 10:49:08;;;;;;;10.93;5.40;;;;;;;33.26;42.52;95130.50;4983183;28;20188;-83
2023/07/17 10:51:34;;;;;;;8.15;5.40;;;;;;;33.11;42.95;95121.13;4991053;28;20542;-84
2023/07/17 10:54:00;;;;;;;9.95;5.07;;;;;;;33.02;41.95;95104.09;5000510;28;20180;-84
2023/07/17 10:56:25;;;;;;;7.10;5.07;;;;;;;33.13;43.01;95123.47;5010158;28;20266;-83
2023/07/17 10:58:52;;;;;;;8.07;4.95;;;;;;;33.23;38.59;95129.25;5010548;28;20189;-83
2023/07/17 11:01:17;;;;;;;9.55;5.80;;;;;;;33.27;41.50;95129.38;5010187;28;20251;-83
2023/07/17 11:03:47;;;;;;;11.35;5.90;;;;;;;33.19;40.83;95114.72;5010358;28;20682;-84
2023/07/17 11:06:17;;;;;;;7.70;5.53;;;;;;;33.05;40.14;95100.66;4992607;28;20180;-83
2023/07/17 11:08:53;;;;;;;12.18;5.60;;;;;;;33.20;40.08;95127.22;5010573;28;20755;-84
2023/07/17 11:11:19;;;;;;;8.25;4.63;;;;;;;33.16;40.76;95120.84;5010205;28;20203;-84
2023/07/17 11:13:46;;;;;;;11.85;6.30;;;;;;;33.20;39.96;95116.31;5010120;28;20211;-84
2023/07/17 11:16:13;;;;;;;7.57;5.00;;;;;;;33.19;36.40;95120.16;5001498;28;20236;-83
2023/07/17 11:18:54;;;;;;;7.15;5.38;;;;;;;33.03;37.28;95100.22;4990614;28;20177;-83
2023/07/17 11:21:23;;;;;;;15.23;5.85;;;;;;;32.98;39.78;95097.72;4990705;28;20581;-82